createdAt,value
2022-10-10T00:00:53.083Z,1017.01
2022-10-10T00:01:53.107Z,1016.99
2022-10-10T00:02:53.224Z,1016.96
2022-10-10T00:03:53.050Z,1016.95
2022-10-10T00:04:53.044Z,1016.95
2022-10-10T00:05:53.029Z,1016.96
2022-10-10T00:06:53.036Z,1016.98
2022-10-10T00:07:53.007Z,1016.94
2022-10-10T00:08:53.017Z,1016.95
2022-10-10T00:09:52.986Z,1016.93
2022-10-10T00:10:52.994Z,1016.89
2022-10-10T00:11:52.963Z,1016.92
2022-10-10T00:12:53.417Z,1016.87
2022-10-10T00:13:52.941Z,1016.91
2022-10-10T00:14:52.932Z,1016.83
2022-10-10T00:15:52.932Z,1016.87
2022-10-10T00:16:52.910Z,1016.89
2022-10-10T00:17:52.898Z,1016.87
2022-10-10T00:18:52.889Z,1016.88
2022-10-10T00:19:52.940Z,1016.90
2022-10-10T00:20:52.868Z,1016.90
2022-10-10T00:21:52.864Z,1016.88
2022-10-10T00:22:53.317Z,1016.90
2022-10-10T00:23:52.831Z,1016.86
2022-10-10T00:24:52.840Z,1016.81
2022-10-10T00:25:52.812Z,1016.82
2022-10-10T00:26:52.813Z,1016.83
2022-10-10T00:27:52.792Z,1016.78
2022-10-10T00:28:52.780Z,1016.81
2022-10-10T00:29:52.768Z,1016.74
2022-10-10T00:30:52.759Z,1016.79
2022-10-10T00:31:52.759Z,1016.72
2022-10-10T00:32:53.110Z,1016.68
2022-10-10T00:33:52.724Z,1016.66
2022-10-10T00:34:52.718Z,1016.67
2022-10-10T00:35:52.702Z,1016.66
2022-10-10T00:36:52.707Z,1016.70
2022-10-10T00:37:52.681Z,1016.65
2022-10-10T00:38:52.674Z,1016.69
2022-10-10T00:39:52.664Z,1016.61
2022-10-10T00:40:52.667Z,1016.63
2022-10-10T00:41:52.653Z,1016.61
2022-10-10T00:42:53.347Z,1016.58
2022-10-10T00:43:52.617Z,1016.58
2022-10-10T00:44:52.608Z,1016.58
2022-10-10T00:45:52.596Z,1016.58
2022-10-10T00:46:52.598Z,1016.58
2022-10-10T00:47:52.573Z,1016.54
2022-10-10T00:48:52.566Z,1016.55
2022-10-10T00:49:52.553Z,1016.56
2022-10-10T00:50:52.542Z,1016.56
2022-10-10T00:51:52.548Z,1016.50
2022-10-10T00:52:52.866Z,1016.56
2022-10-10T00:53:52.511Z,1016.47
2022-10-10T00:54:52.498Z,1016.46
2022-10-10T00:55:52.492Z,1016.44
2022-10-10T00:56:52.503Z,1016.49
2022-10-10T00:57:52.470Z,1016.49
2022-10-10T00:58:52.455Z,1016.51
2022-10-10T00:59:52.446Z,1016.48
2022-10-10T01:00:52.452Z,1016.50
2022-10-10T01:01:52.434Z,1016.46
2022-10-10T01:02:53.000Z,1016.46
2022-10-10T01:03:52.403Z,1016.44
2022-10-10T01:04:52.390Z,1016.41
2022-10-10T01:05:52.390Z,1016.46
2022-10-10T01:06:52.368Z,1016.45
2022-10-10T01:07:52.360Z,1016.35
2022-10-10T01:08:52.347Z,1016.38
2022-10-10T01:09:52.340Z,1016.36
2022-10-10T01:10:52.334Z,1016.32
2022-10-10T01:11:52.317Z,1016.31
2022-10-10T01:12:52.845Z,1016.33
2022-10-10T01:13:52.301Z,1016.31
2022-10-10T01:14:52.284Z,1016.26
2022-10-10T01:15:52.312Z,1016.34
2022-10-10T01:16:52.262Z,1016.28
2022-10-10T01:17:52.252Z,1016.29
2022-10-10T01:18:52.240Z,1016.30
2022-10-10T01:19:52.232Z,1016.26
2022-10-10T01:20:52.236Z,1016.23
2022-10-10T01:21:52.207Z,1016.25
2022-10-10T01:22:52.700Z,1016.20
2022-10-10T01:23:52.272Z,1016.21
2022-10-10T01:24:52.177Z,1016.21
2022-10-10T01:25:52.179Z,1016.16
2022-10-10T01:26:52.153Z,1016.22
2022-10-10T01:27:52.143Z,1016.21
2022-10-10T01:28:52.152Z,1016.20
2022-10-10T01:29:52.123Z,1016.18
2022-10-10T01:30:52.134Z,1016.18
2022-10-10T01:31:52.101Z,1016.16
2022-10-10T01:32:52.389Z,1016.17
2022-10-10T01:33:52.079Z,1016.17
2022-10-10T01:34:52.084Z,1016.18
2022-10-10T01:35:52.059Z,1016.10
2022-10-10T01:36:52.046Z,1016.15
2022-10-10T01:37:52.039Z,1016.16
2022-10-10T01:38:52.024Z,1016.11
2022-10-10T01:39:52.027Z,1016.13
2022-10-10T01:40:52.003Z,1016.11
2022-10-10T01:41:51.993Z,1016.02
2022-10-10T01:42:52.397Z,1016.07
2022-10-10T01:43:51.971Z,1016.04
2022-10-10T01:44:51.991Z,1016.04
2022-10-10T01:45:51.953Z,1016.04
2022-10-10T01:46:51.938Z,1016.03
2022-10-10T01:47:51.928Z,1016.00
2022-10-10T01:48:51.917Z,1015.95
2022-10-10T01:49:51.931Z,1015.98
2022-10-10T01:50:51.896Z,1015.94
2022-10-10T01:51:51.885Z,1015.92
2022-10-10T01:52:52.236Z,1015.95
2022-10-10T01:53:51.866Z,1015.93
2022-10-10T01:54:51.862Z,1015.97
2022-10-10T01:55:51.855Z,1015.90
2022-10-10T01:56:51.831Z,1015.88
2022-10-10T01:57:51.825Z,1015.89
2022-10-10T01:58:51.808Z,1015.87
2022-10-10T01:59:51.808Z,1015.87
2022-10-10T02:01:53.441Z,1015.84
2022-10-10T02:02:53.869Z,1015.92
2022-10-10T02:03:53.402Z,1015.90
2022-10-10T02:04:53.406Z,1015.84
2022-10-10T02:05:53.390Z,1015.81
2022-10-10T02:06:53.370Z,1015.81
2022-10-10T02:07:53.361Z,1015.77
2022-10-10T02:08:53.378Z,1015.82
2022-10-10T02:09:53.347Z,1015.80
2022-10-10T02:10:53.323Z,1015.82
2022-10-10T02:11:53.315Z,1015.73
2022-10-10T02:12:53.753Z,1015.75
2022-10-10T02:13:53.293Z,1015.80
2022-10-10T02:14:53.288Z,1015.76
2022-10-10T02:15:53.278Z,1015.78
2022-10-10T02:16:53.257Z,1015.77
2022-10-10T02:17:53.269Z,1015.73
2022-10-10T02:18:53.238Z,1015.72
2022-10-10T02:19:53.237Z,1015.70
2022-10-10T02:20:53.221Z,1015.72
2022-10-10T02:21:53.205Z,1015.70
2022-10-10T02:22:53.770Z,1015.69
2022-10-10T02:23:53.185Z,1015.69
2022-10-10T02:24:53.194Z,1015.66
2022-10-10T02:25:53.167Z,1015.62
2022-10-10T02:26:53.149Z,1015.61
2022-10-10T02:27:53.169Z,1015.60
2022-10-10T02:28:53.127Z,1015.62
2022-10-10T02:29:53.133Z,1015.60
2022-10-10T02:30:53.109Z,1015.58
2022-10-10T02:31:53.099Z,1015.54
2022-10-10T02:32:53.471Z,1015.53
2022-10-10T02:33:53.094Z,1015.54
2022-10-10T02:34:53.078Z,1015.56
2022-10-10T02:35:53.054Z,1015.51
2022-10-10T02:36:53.042Z,1015.47
2022-10-10T02:37:53.037Z,1015.48
2022-10-10T02:38:53.065Z,1015.50
2022-10-10T02:39:53.190Z,1015.47
2022-10-10T02:40:53.002Z,1015.45
2022-10-10T02:41:52.990Z,1015.42
2022-10-10T02:42:53.512Z,1015.46
2022-10-10T02:43:52.967Z,1015.49
2022-10-10T02:44:52.970Z,1015.50
2022-10-10T02:45:52.946Z,1015.44
2022-10-10T02:46:52.938Z,1015.45
2022-10-10T02:47:52.925Z,1015.41
2022-10-10T02:48:52.911Z,1015.39
2022-10-10T02:49:52.931Z,1015.37
2022-10-10T02:50:52.890Z,1015.37
2022-10-10T02:51:52.896Z,1015.37
2022-10-10T02:52:53.253Z,1015.33
2022-10-10T02:53:52.861Z,1015.34
2022-10-10T02:54:52.858Z,1015.32
2022-10-10T02:55:52.838Z,1015.30
2022-10-10T02:56:52.826Z,1015.25
2022-10-10T02:57:52.817Z,1015.26
2022-10-10T02:58:52.807Z,1015.26
2022-10-10T02:59:52.805Z,1015.21
2022-10-10T03:00:52.829Z,1015.18
2022-10-10T03:01:52.777Z,1015.21
2022-10-10T03:02:53.176Z,1015.19
2022-10-10T03:03:52.753Z,1015.21
2022-10-10T03:04:52.748Z,1015.18
2022-10-10T03:05:52.750Z,1015.19
2022-10-10T03:06:52.722Z,1015.13
2022-10-10T03:07:52.711Z,1015.16
2022-10-10T03:08:52.695Z,1015.13
2022-10-10T03:09:52.700Z,1015.11
2022-10-10T03:10:52.706Z,1015.14
2022-10-10T03:11:52.665Z,1015.12
2022-10-10T03:12:52.983Z,1015.09
2022-10-10T03:13:52.646Z,1015.08
2022-10-10T03:14:52.645Z,1015.03
2022-10-10T03:15:52.621Z,1015.03
2022-10-10T03:16:52.611Z,1014.99
2022-10-10T03:17:52.601Z,1014.98
2022-10-10T03:18:52.588Z,1014.99
2022-10-10T03:19:52.591Z,1014.91
2022-10-10T03:20:52.566Z,1014.98
2022-10-10T03:21:52.575Z,1014.95
2022-10-10T03:22:52.880Z,1014.92
2022-10-10T03:23:52.536Z,1014.94
2022-10-10T03:24:52.537Z,1014.90
2022-10-10T03:25:52.514Z,1014.92
2022-10-10T03:26:52.501Z,1014.93
2022-10-10T03:27:52.496Z,1014.94
2022-10-10T03:28:52.482Z,1014.88
2022-10-10T03:29:52.485Z,1014.86
2022-10-10T03:30:52.460Z,1014.87
2022-10-10T03:31:52.450Z,1014.86
2022-10-10T03:32:52.994Z,1014.85
2022-10-10T03:33:52.433Z,1014.87
2022-10-10T03:34:52.424Z,1014.84
2022-10-10T03:35:52.407Z,1014.86
2022-10-10T03:36:52.394Z,1014.83
2022-10-10T03:37:52.402Z,1014.84
2022-10-10T03:38:52.370Z,1014.85
2022-10-10T03:39:52.376Z,1014.81
2022-10-10T03:40:52.349Z,1014.79
2022-10-10T03:41:52.340Z,1014.75
2022-10-10T03:42:53.069Z,1014.75
2022-10-10T03:43:52.320Z,1014.72
2022-10-10T03:44:52.320Z,1014.72
2022-10-10T03:45:52.300Z,1014.70
2022-10-10T03:46:52.287Z,1014.67
2022-10-10T03:47:52.306Z,1014.66
2022-10-10T03:48:52.269Z,1014.64
2022-10-10T03:49:52.268Z,1014.68
2022-10-10T03:50:52.246Z,1014.62
2022-10-10T03:51:52.233Z,1014.60
2022-10-10T03:52:52.581Z,1014.60
2022-10-10T03:53:52.231Z,1014.61
2022-10-10T03:54:52.227Z,1014.59
2022-10-10T03:55:52.190Z,1014.58
2022-10-10T03:56:52.178Z,1014.57
2022-10-10T03:57:52.206Z,1014.53
2022-10-10T03:58:52.172Z,1014.55
2022-10-10T03:59:52.148Z,1014.53
2022-10-10T04:00:52.139Z,1014.50
2022-10-10T04:01:52.146Z,1014.45
2022-10-10T04:02:52.422Z,1014.47
2022-10-10T04:03:52.414Z,1014.47
2022-10-10T04:04:52.100Z,1014.47
2022-10-10T04:05:52.088Z,1014.47
2022-10-10T04:06:52.069Z,1014.46
2022-10-10T04:07:52.060Z,1014.44
2022-10-10T04:08:52.050Z,1014.44
2022-10-10T04:09:52.079Z,1014.40
2022-10-10T04:10:52.025Z,1014.44
2022-10-10T04:11:52.016Z,1014.44
2022-10-10T04:12:52.250Z,1014.42
2022-10-10T04:13:52.007Z,1014.36
2022-10-10T04:14:52.013Z,1014.35
2022-10-10T04:15:51.974Z,1014.30
2022-10-10T04:16:51.965Z,1014.30
2022-10-10T04:17:51.951Z,1014.29
2022-10-10T04:18:51.949Z,1014.29
2022-10-10T04:19:51.938Z,1014.24
2022-10-10T04:20:51.918Z,1014.25
2022-10-10T04:21:51.909Z,1014.26
2022-10-10T04:22:52.279Z,1014.24
2022-10-10T04:23:51.903Z,1014.18
2022-10-10T04:24:51.891Z,1014.21
2022-10-10T04:25:51.896Z,1014.19
2022-10-10T04:26:51.856Z,1014.13
2022-10-10T04:27:51.842Z,1014.13
2022-10-10T04:28:51.850Z,1014.19
2022-10-10T04:29:51.844Z,1014.12
2022-10-10T04:30:51.809Z,1014.10
2022-10-10T04:31:51.800Z,1014.06
2022-10-10T04:32:52.232Z,1014.06
2022-10-10T04:33:51.792Z,1014.03
2022-10-10T04:34:51.768Z,1014.03
2022-10-10T04:35:51.757Z,1013.98
2022-10-10T04:36:51.744Z,1013.95
2022-10-10T04:37:51.736Z,1014.01
2022-10-10T04:38:51.733Z,1013.98
2022-10-10T04:39:51.715Z,1014.00
2022-10-10T04:40:51.702Z,1014.01
2022-10-10T04:41:51.708Z,1014.01
2022-10-10T04:42:52.031Z,1013.93
2022-10-10T04:43:51.690Z,1013.91
2022-10-10T04:44:51.658Z,1013.92
2022-10-10T04:45:51.648Z,1013.94
2022-10-10T04:46:51.636Z,1013.89
2022-10-10T04:47:51.649Z,1013.88
2022-10-10T04:48:51.628Z,1013.86
2022-10-10T04:49:51.609Z,1013.85
2022-10-10T04:50:51.595Z,1013.88
2022-10-10T04:51:51.597Z,1013.88
2022-10-10T04:52:51.970Z,1013.85
2022-10-10T04:53:51.574Z,1013.84
2022-10-10T04:54:51.551Z,1013.81
2022-10-10T04:55:51.540Z,1013.79
2022-10-10T04:56:51.529Z,1013.77
2022-10-10T04:57:51.535Z,1013.74
2022-10-10T04:58:51.519Z,1013.71
2022-10-10T04:59:51.496Z,1013.70
2022-10-10T05:00:51.488Z,1013.66
2022-10-10T05:01:51.473Z,1013.67
2022-10-10T05:02:51.747Z,1013.63
2022-10-10T05:03:51.467Z,1013.67
2022-10-10T05:04:51.445Z,1013.65
2022-10-10T05:05:51.438Z,1013.62
2022-10-10T05:06:51.426Z,1013.60
2022-10-10T05:07:55.331Z,1013.57
2022-10-10T05:08:51.414Z,1013.56
2022-10-10T05:09:51.387Z,1013.53
2022-10-10T05:10:51.379Z,1013.52
2022-10-10T05:11:51.369Z,1013.47
2022-10-10T05:12:51.740Z,1013.44
2022-10-10T05:13:51.373Z,1013.45
2022-10-10T05:14:51.335Z,1013.46
2022-10-10T05:15:51.325Z,1013.42
2022-10-10T05:16:51.318Z,1013.43
2022-10-10T05:17:51.303Z,1013.39
2022-10-10T05:18:51.306Z,1013.39
2022-10-10T05:19:51.281Z,1013.44
2022-10-10T05:20:51.272Z,1013.39
2022-10-10T05:21:51.259Z,1013.43
2022-10-10T05:22:51.594Z,1013.40
2022-10-10T05:23:51.255Z,1013.43
2022-10-10T05:24:51.228Z,1013.36
2022-10-10T05:25:51.215Z,1013.37
2022-10-10T05:26:51.208Z,1013.39
2022-10-10T05:27:51.193Z,1013.40
2022-10-10T05:28:51.195Z,1013.35
2022-10-10T05:29:51.188Z,1013.28
2022-10-10T05:30:51.178Z,1013.26
2022-10-10T05:31:51.150Z,1013.26
2022-10-10T05:32:51.348Z,1013.26
2022-10-10T05:33:51.139Z,1013.29
2022-10-10T05:34:51.118Z,1013.30
2022-10-10T05:35:51.108Z,1013.33
2022-10-10T05:36:51.100Z,1013.23
2022-10-10T05:37:51.086Z,1013.21
2022-10-10T05:38:51.095Z,1013.20
2022-10-10T05:39:54.560Z,1013.19
2022-10-10T05:40:51.075Z,1013.19
2022-10-10T05:41:51.047Z,1013.22
2022-10-10T05:42:51.275Z,1013.27
2022-10-10T05:43:51.030Z,1013.27
2022-10-10T05:44:51.014Z,1013.28
2022-10-10T05:45:51.027Z,1013.20
2022-10-10T05:46:50.990Z,1013.20
2022-10-10T05:47:50.978Z,1013.24
2022-10-10T05:48:50.994Z,1013.30
2022-10-10T05:49:50.956Z,1013.26
2022-10-10T05:50:50.946Z,1013.25
2022-10-10T05:51:50.935Z,1013.16
2022-10-10T05:52:51.138Z,1013.15
2022-10-10T05:53:50.921Z,1013.16
2022-10-10T05:54:50.903Z,1013.14
2022-10-10T05:55:50.897Z,1013.15
2022-10-10T05:56:50.882Z,1013.17
2022-10-10T05:57:50.869Z,1013.17
2022-10-10T05:58:50.869Z,1013.12
2022-10-10T05:59:50.846Z,1013.11
2022-10-10T06:00:50.836Z,1013.09
2022-10-10T06:01:50.896Z,1013.17
2022-10-10T06:02:51.175Z,1013.09
2022-10-10T06:03:50.815Z,1013.15
2022-10-10T06:04:50.794Z,1013.15
2022-10-10T06:05:50.781Z,1013.16
2022-10-10T06:06:50.773Z,1013.18
2022-10-10T06:08:11.584Z,1013.14
2022-10-10T06:08:51.751Z,1013.21
2022-10-10T06:09:50.738Z,1013.17
2022-10-10T06:10:50.729Z,1013.10
2022-10-10T06:11:50.718Z,1013.10
2022-10-10T06:12:51.099Z,1013.05
2022-10-10T06:13:50.694Z,1013.14
2022-10-10T06:14:50.686Z,1013.10
2022-10-10T06:15:50.673Z,1013.12
2022-10-10T06:16:50.664Z,1013.07
2022-10-10T06:17:50.708Z,1013.07
2022-10-10T06:18:50.644Z,1013.10
2022-10-10T06:19:50.632Z,1013.10
2022-10-10T06:20:50.633Z,1013.06
2022-10-10T06:21:50.612Z,1013.06
2022-10-10T06:22:50.868Z,1013.10
2022-10-10T06:23:50.600Z,1013.12
2022-10-10T06:24:53.008Z,1013.12
2022-10-10T06:25:50.567Z,1013.06
2022-10-10T06:26:50.564Z,1013.07
2022-10-10T06:27:50.543Z,1013.09
2022-10-10T06:28:50.550Z,1013.06
2022-10-10T06:29:50.534Z,1013.08
2022-10-10T06:30:50.515Z,1013.08
2022-10-10T06:31:50.521Z,1013.14
2022-10-10T06:32:53.605Z,1013.14
2022-10-10T06:33:51.517Z,1013.13
2022-10-10T06:34:50.469Z,1013.17
2022-10-10T06:35:50.457Z,1013.15
2022-10-10T06:36:50.449Z,1013.16
2022-10-10T06:37:50.437Z,1013.20
2022-10-10T06:38:50.463Z,1013.10
2022-10-10T06:39:50.416Z,1013.18
2022-10-10T06:40:50.405Z,1013.16
2022-10-10T06:41:50.393Z,1013.14
2022-10-10T06:42:50.695Z,1013.21
2022-10-10T06:43:50.380Z,1013.21
2022-10-10T06:44:50.364Z,1013.06
2022-10-10T06:45:50.346Z,1013.07
2022-10-10T06:46:50.345Z,1013.08
2022-10-10T06:47:50.363Z,1013.11
2022-10-10T06:48:50.327Z,1013.12
2022-10-10T06:49:50.322Z,1013.08
2022-10-10T06:50:50.295Z,1013.08
2022-10-10T06:51:50.282Z,1013.09
2022-10-10T06:52:50.596Z,1013.13
2022-10-10T06:53:50.270Z,1013.03
2022-10-10T06:54:50.250Z,1013.04
2022-10-10T06:55:50.242Z,1013.03
2022-10-10T06:56:50.228Z,1013.06
2022-10-10T06:57:50.216Z,1013.09
2022-10-10T06:58:50.258Z,1013.07
2022-10-10T06:59:50.194Z,1013.02
2022-10-10T07:00:50.186Z,1012.96
2022-10-10T07:01:50.208Z,1012.99
2022-10-10T07:02:50.409Z,1012.95
2022-10-10T07:03:50.163Z,1012.99
2022-10-10T07:04:50.142Z,1013.03
2022-10-10T07:05:50.145Z,1013.04
2022-10-10T07:06:50.122Z,1012.95
2022-10-10T07:07:50.107Z,1013.00
2022-10-10T07:08:50.111Z,1012.97
2022-10-10T07:09:50.096Z,1012.93
2022-10-10T07:10:50.080Z,1012.94
2022-10-10T07:11:50.066Z,1012.90
2022-10-10T07:12:50.057Z,1012.94
2022-10-10T07:13:50.061Z,1012.89
2022-10-10T07:14:50.034Z,1012.79
2022-10-10T07:15:50.023Z,1012.85
2022-10-10T07:16:50.017Z,1012.88
2022-10-10T07:17:54.226Z,1012.81
2022-10-10T07:18:50.008Z,1012.80
2022-10-10T07:19:49.980Z,1012.78
2022-10-10T07:20:49.971Z,1012.79
2022-10-10T07:21:49.977Z,1012.84
2022-10-10T07:22:50.238Z,1012.78
2022-10-10T07:23:49.949Z,1012.69
2022-10-10T07:24:49.943Z,1012.75
2022-10-10T07:25:49.919Z,1012.78
2022-10-10T07:26:49.904Z,1012.85
2022-10-10T07:27:49.946Z,1012.84
2022-10-10T07:28:49.904Z,1012.88
2022-10-10T07:29:49.869Z,1012.88
2022-10-10T07:30:49.859Z,1012.86
2022-10-10T07:31:49.848Z,1012.86
2022-10-10T07:32:50.185Z,1012.88
2022-10-10T07:33:50.815Z,1012.87
2022-10-10T07:34:49.816Z,1012.86
2022-10-10T07:35:49.804Z,1012.90
2022-10-10T07:36:49.796Z,1012.92
2022-10-10T07:37:49.803Z,1012.91
2022-10-10T07:38:49.783Z,1012.86
2022-10-10T07:39:49.762Z,1012.90
2022-10-10T07:40:49.753Z,1012.90
2022-10-10T07:41:49.740Z,1012.98
2022-10-10T07:42:50.024Z,1012.88
2022-10-10T07:43:49.747Z,1012.86
2022-10-10T07:44:49.708Z,1012.84
2022-10-10T07:45:49.744Z,1012.86
2022-10-10T07:46:49.695Z,1012.79
2022-10-10T07:47:49.941Z,1012.85
2022-10-10T07:48:49.707Z,1012.85
2022-10-10T07:49:49.651Z,1012.83
2022-10-10T07:50:49.641Z,1012.87
2022-10-10T07:51:49.631Z,1012.86
2022-10-10T07:52:49.619Z,1012.86
2022-10-10T07:53:49.634Z,1012.82
2022-10-10T07:54:49.599Z,1012.81
2022-10-10T07:55:49.584Z,1012.87
2022-10-10T07:56:49.575Z,1012.80
2022-10-10T07:57:53.171Z,1012.84
2022-10-10T07:58:49.565Z,1012.84
2022-10-10T07:59:49.545Z,1012.92
2022-10-10T08:00:49.532Z,1012.88
2022-10-10T08:01:57.162Z,1012.90
2022-10-10T08:02:49.508Z,1012.86
2022-10-10T08:03:49.508Z,1012.87
2022-10-10T08:04:49.490Z,1012.84
2022-10-10T08:05:49.474Z,1012.86
2022-10-10T08:06:49.505Z,1012.88
2022-10-10T08:07:49.794Z,1012.83
2022-10-10T08:08:51.672Z,1012.83
2022-10-10T08:09:49.447Z,1012.84
2022-10-10T08:10:49.423Z,1012.85
2022-10-10T08:11:49.409Z,1012.81
2022-10-10T08:12:49.421Z,1012.86
2022-10-10T08:13:49.399Z,1012.79
2022-10-10T08:14:49.379Z,1012.82
2022-10-10T08:15:49.364Z,1012.75
2022-10-10T08:16:49.356Z,1012.74
2022-10-10T08:17:49.659Z,1012.69
2022-10-10T08:18:49.343Z,1012.76
2022-10-10T08:19:49.321Z,1012.69
2022-10-10T08:20:49.313Z,1012.74
2022-10-10T08:21:49.305Z,1012.75
2022-10-10T08:22:49.637Z,1012.76
2022-10-10T08:23:49.297Z,1012.68
2022-10-10T08:24:49.310Z,1012.65
2022-10-10T08:25:49.274Z,1012.62
2022-10-10T08:26:49.280Z,1012.62
2022-10-10T08:27:49.234Z,1012.63
2022-10-10T08:28:49.343Z,1012.66
2022-10-10T08:29:49.212Z,1012.64
2022-10-10T08:30:49.219Z,1012.64
2022-10-10T08:31:49.194Z,1012.59
2022-10-10T08:32:49.542Z,1012.61
2022-10-10T08:33:49.180Z,1012.59
2022-10-10T08:34:49.163Z,1012.57
2022-10-10T08:35:49.148Z,1012.66
2022-10-10T08:36:49.137Z,1012.64
2022-10-10T08:37:49.129Z,1012.58
2022-10-10T08:38:49.138Z,1012.62
2022-10-10T08:39:49.112Z,1012.59
2022-10-10T08:40:49.097Z,1012.60
2022-10-10T08:41:49.151Z,1012.57
2022-10-10T08:42:52.686Z,1012.62
2022-10-10T08:43:49.073Z,1012.53
2022-10-10T08:44:49.054Z,1012.53
2022-10-10T08:45:49.040Z,1012.52
2022-10-10T08:46:49.031Z,1012.56
2022-10-10T08:47:49.018Z,1012.60
2022-10-10T08:48:49.021Z,1012.56
2022-10-10T08:49:49.019Z,1012.58
2022-10-10T08:50:48.988Z,1012.63
2022-10-10T08:51:48.978Z,1012.57
2022-10-10T08:52:49.361Z,1012.51
2022-10-10T08:53:48.974Z,1012.54
2022-10-10T08:54:48.946Z,1012.53
2022-10-10T08:55:48.933Z,1012.48
2022-10-10T08:56:48.923Z,1012.50
2022-10-10T08:57:48.930Z,1012.48
2022-10-10T08:58:48.915Z,1012.49
2022-10-10T08:59:48.980Z,1012.49
2022-10-10T09:00:48.944Z,1012.48
2022-10-10T09:02:18.328Z,1012.45
2022-10-10T09:02:53.949Z,1012.46
2022-10-10T09:03:48.858Z,1012.43
2022-10-10T09:04:48.836Z,1012.42
2022-10-10T09:05:48.838Z,1012.38
2022-10-10T09:06:48.826Z,1012.41
2022-10-10T09:07:48.801Z,1012.43
2022-10-10T09:08:48.800Z,1012.49
2022-10-10T09:09:48.873Z,1012.47
2022-10-10T09:10:48.769Z,1012.41
2022-10-10T09:11:48.762Z,1012.37
2022-10-10T09:12:48.755Z,1012.33
2022-10-10T09:13:48.872Z,1012.33
2022-10-10T09:14:48.725Z,1012.40
2022-10-10T09:15:48.716Z,1012.34
2022-10-10T09:16:48.706Z,1012.34
2022-10-10T09:17:48.697Z,1012.35
2022-10-10T09:18:48.699Z,1012.36
2022-10-10T09:19:48.789Z,1012.33
2022-10-10T09:20:48.662Z,1012.36
2022-10-10T09:21:48.652Z,1012.32
2022-10-10T09:22:48.641Z,1012.32
2022-10-10T09:23:48.640Z,1012.37
2022-10-10T09:24:48.619Z,1012.32
2022-10-10T09:25:48.607Z,1012.32
2022-10-10T09:26:48.596Z,1012.35
2022-10-10T09:27:48.596Z,1012.37
2022-10-10T09:28:48.651Z,1012.38
2022-10-10T09:29:48.688Z,1012.31
2022-10-10T09:30:48.554Z,1012.29
2022-10-10T09:31:48.544Z,1012.30
2022-10-10T09:32:48.539Z,1012.31
2022-10-10T09:33:48.539Z,1012.27
2022-10-10T09:34:48.511Z,1012.33
2022-10-10T09:35:48.501Z,1012.26
2022-10-10T09:36:48.490Z,1012.23
2022-10-10T09:37:48.482Z,1012.19
2022-10-10T09:38:48.483Z,1012.19
2022-10-10T09:39:48.463Z,1012.28
2022-10-10T09:40:48.449Z,1012.26
2022-10-10T09:41:48.441Z,1012.26
2022-10-10T09:42:48.429Z,1012.23
2022-10-10T09:43:48.436Z,1012.17
2022-10-10T09:44:48.409Z,1012.17
2022-10-10T09:45:48.417Z,1012.21
2022-10-10T09:46:48.387Z,1012.21
2022-10-10T09:47:48.381Z,1012.19
2022-10-10T09:48:48.377Z,1012.20
2022-10-10T09:49:48.361Z,1012.19
2022-10-10T09:50:48.347Z,1012.16
2022-10-10T09:51:48.337Z,1012.15
2022-10-10T09:52:48.326Z,1012.13
2022-10-10T09:53:48.334Z,1012.13
2022-10-10T09:54:48.305Z,1012.03
2022-10-10T09:55:48.327Z,1012.07
2022-10-10T09:56:48.284Z,1012.02
2022-10-10T09:57:48.275Z,1012.02
2022-10-10T09:58:48.276Z,1011.98
2022-10-10T09:59:48.254Z,1011.87
2022-10-10T10:00:48.283Z,1011.94
2022-10-10T10:01:48.289Z,1011.97
2022-10-10T10:02:48.224Z,1011.95
2022-10-10T10:03:48.224Z,1011.95
2022-10-10T10:04:48.202Z,1011.96
2022-10-10T10:05:48.192Z,1011.91
2022-10-10T10:06:48.179Z,1012.04
2022-10-10T10:07:48.171Z,1011.99
2022-10-10T10:08:49.981Z,1012.00
2022-10-10T10:09:48.150Z,1012.00
2022-10-10T10:10:48.138Z,1012.00
2022-10-10T10:11:48.134Z,1012.01
2022-10-10T10:12:48.114Z,1011.98
2022-10-10T10:13:48.116Z,1012.08
2022-10-10T10:14:48.093Z,1012.04
2022-10-10T10:15:48.086Z,1012.07
2022-10-10T10:16:48.072Z,1012.06
2022-10-10T10:17:48.203Z,1012.07
2022-10-10T10:18:48.053Z,1012.11
2022-10-10T10:19:48.041Z,1012.03
2022-10-10T10:20:48.028Z,1012.03
2022-10-10T10:21:48.017Z,1011.96
2022-10-10T10:22:48.054Z,1012.08
2022-10-10T10:23:48.056Z,1012.08
2022-10-10T10:24:47.985Z,1011.93
2022-10-10T10:25:47.975Z,1011.94
2022-10-10T10:26:47.962Z,1011.90
2022-10-10T10:27:47.952Z,1011.93
2022-10-10T10:28:48.016Z,1011.93
2022-10-10T10:29:47.932Z,1011.89
2022-10-10T10:30:47.920Z,1011.95
2022-10-10T10:31:47.908Z,1011.92
2022-10-10T10:32:47.907Z,1011.83
2022-10-10T10:33:48.004Z,1011.85
2022-10-10T10:34:47.871Z,1011.89
2022-10-10T10:35:47.868Z,1011.85
2022-10-10T10:36:47.859Z,1011.83
2022-10-10T10:37:47.858Z,1011.79
2022-10-10T10:38:47.830Z,1011.79
2022-10-10T10:39:47.821Z,1011.77
2022-10-10T10:40:47.808Z,1011.72
2022-10-10T10:41:47.800Z,1011.72
2022-10-10T10:42:47.808Z,1011.72
2022-10-10T10:43:47.779Z,1011.74
2022-10-10T10:44:47.774Z,1011.71
2022-10-10T10:45:47.756Z,1011.70
2022-10-10T10:46:47.744Z,1011.70
2022-10-10T10:47:47.747Z,1011.64
2022-10-10T10:48:47.733Z,1011.64
2022-10-10T10:49:47.731Z,1011.65
2022-10-10T10:50:47.700Z,1011.63
2022-10-10T10:51:47.691Z,1011.69
2022-10-10T10:52:47.688Z,1011.68
2022-10-10T10:53:47.670Z,1011.62
2022-10-10T10:54:47.665Z,1011.62
2022-10-10T10:55:47.649Z,1011.59
2022-10-10T10:56:47.637Z,1011.60
2022-10-10T10:58:05.171Z,1011.64
2022-10-10T10:59:15.800Z,1011.63
2022-10-10T11:00:21.646Z,1011.58
2022-10-10T11:01:23.405Z,1011.59
2022-10-10T11:01:57.798Z,1011.56
2022-10-10T11:02:59.646Z,1011.54
2022-10-10T11:05:16.629Z,1011.55
2022-10-10T11:05:18.786Z,1011.49
2022-10-10T11:05:48.706Z,1011.55
2022-10-10T11:06:59.975Z,1011.55
2022-10-10T11:07:48.625Z,1011.51
2022-10-10T11:08:47.520Z,1011.48
2022-10-10T11:09:50.960Z,1011.49
2022-10-10T11:10:47.483Z,1011.44
2022-10-10T11:11:47.473Z,1011.44
2022-10-10T11:12:47.472Z,1011.49
2022-10-10T11:13:47.464Z,1011.49
2022-10-10T11:14:47.446Z,1011.45
2022-10-10T11:16:05.505Z,1011.43
2022-10-10T11:16:49.353Z,1011.39
2022-10-10T11:17:47.423Z,1011.38
2022-10-10T11:18:47.411Z,1011.37
2022-10-10T11:19:47.384Z,1011.33
2022-10-10T11:20:47.393Z,1011.31
2022-10-10T11:21:47.386Z,1011.42
2022-10-10T11:22:47.351Z,1011.37
2022-10-10T11:23:47.356Z,1011.36
2022-10-10T11:24:47.344Z,1011.31
2022-10-10T11:25:47.317Z,1011.34
2022-10-10T11:26:47.309Z,1011.35
2022-10-10T11:27:47.297Z,1011.33
2022-10-10T11:28:49.577Z,1011.31
2022-10-10T11:29:47.275Z,1011.30
2022-10-10T11:30:47.261Z,1011.31
2022-10-10T11:31:47.252Z,1011.27
2022-10-10T11:32:47.240Z,1011.27
2022-10-10T11:33:47.242Z,1011.27
2022-10-10T11:34:47.217Z,1011.24
2022-10-10T11:35:47.214Z,1011.22
2022-10-10T11:36:47.197Z,1011.25
2022-10-10T11:37:47.208Z,1011.23
2022-10-10T11:38:47.182Z,1011.19
2022-10-10T11:39:47.166Z,1011.14
2022-10-10T11:40:47.153Z,1011.14
2022-10-10T11:41:47.143Z,1011.23
2022-10-10T11:42:47.131Z,1011.21
2022-10-10T11:43:47.131Z,1011.20
2022-10-10T11:44:47.107Z,1011.23
2022-10-10T11:45:49.765Z,1011.17
2022-10-10T11:46:48.085Z,1011.19
2022-10-10T11:47:47.077Z,1011.17
2022-10-10T11:48:47.074Z,1011.16
2022-10-10T11:49:47.055Z,1011.14
2022-10-10T11:50:47.043Z,1011.09
2022-10-10T11:51:47.033Z,1011.03
2022-10-10T11:52:47.020Z,1011.09
2022-10-10T11:53:47.036Z,1011.04
2022-10-10T11:54:47.006Z,1011.02
2022-10-10T11:55:46.988Z,1010.99
2022-10-10T11:56:46.978Z,1011.01
2022-10-10T11:57:46.968Z,1010.99
2022-10-10T11:58:46.963Z,1011.01
2022-10-10T11:59:46.946Z,1010.98
2022-10-10T12:00:46.931Z,1010.98
2022-10-10T12:01:47.003Z,1011.00
2022-10-10T12:02:46.909Z,1010.99
2022-10-10T12:03:46.910Z,1010.98
2022-10-10T12:04:46.886Z,1010.99
2022-10-10T12:05:46.880Z,1010.98
2022-10-10T12:06:46.866Z,1011.04